Time;durP1;ratioP1;P1;durP2;ratioP2;P2;SDS_P1;SDS_P2;PMS_P1;PMS_P2;Temp;Humidity;BMP_temperature;BMP_pressure;BME280_temperature;BME280_humidity;BME280_pressure;Samples;Min_cycle;Max_cycle;Signal;HPM_P1;HPM_P2
2022/02/03 00:00:17;;;;;;;51.67;23.75;;;2.40;74.90;;;;;;5139039;27;20027;-33
2022/02/03 00:02:59;;;;;;;51.72;22.92;;;2.40;74.90;;;;;;5139877;27;20031;-42
2022/02/03 00:05:45;;;;;;;55.90;23.75;;;2.40;75.20;;;;;;5139475;27;20102;-32
2022/02/03 00:17:05;;;;;;;51.22;23.15;;;2.30;75.90;;;;;;5139543;27;20382;-42
2022/02/03 00:24:41;;;;;;;54.40;20.83;;;2.30;76.30;;;;;;5139441;27;20041;-32
2022/02/03 00:27:21;;;;;;;50.15;20.40;;;2.30;76.40;;;;;;5138871;27;20126;-42
2022/02/03 00:38:16;;;;;;;49.80;20.73;;;2.30;76.60;;;;;;5139331;27;20030;-43
2022/02/03 00:48:56;;;;;;;47.05;20.88;;;2.20;76.90;;;;;;5139515;27;20456;-43
2022/02/03 00:51:24;;;;;;;50.10;21.90;;;2.20;76.80;;;;;;5138856;27;20468;-43
2022/02/03 00:53:50;;;;;;;48.70;21.63;;;2.20;77.00;;;;;;5139210;27;20027;-33
2022/02/03 00:56:26;;;;;;;50.15;21.35;;;2.20;77.00;;;;;;5138350;27;20031;-33
2022/02/03 00:59:01;;;;;;;47.40;21.33;;;2.20;77.00;;;;;;5139215;27;20042;-42
2022/02/03 01:01:30;;;;;;;50.05;22.92;;;2.20;77.00;;;;;;5138606;27;20080;-43
2022/02/03 01:04:00;;;;;;;55.13;23.95;;;2.20;77.30;;;;;;5138623;27;20376;-43
2022/02/03 01:06:28;;;;;;;73.93;28.73;;;2.10;77.40;;;;;;5138173;27;20030;-43
2022/02/03 01:08:56;;;;;;;64.60;25.20;;;2.00;77.50;;;;;;5138369;27;20051;-42
2022/02/03 01:11:31;;;;;;;62.20;24.80;;;2.00;77.60;;;;;;5137318;27;20098;-33
2022/02/03 01:43:39;;;;;;;67.97;27.10;;;2.00;78.40;;;;;;5138545;27;20322;-32
2022/02/03 01:46:14;;;;;;;59.22;25.55;;;2.00;78.40;;;;;;5137131;27;20034;-33
2022/02/03 01:54:04;;;;;;;59.45;25.02;;;1.90;78.30;;;;;;5137735;27;20039;-32
2022/02/03 01:56:46;;;;;;;58.60;23.38;;;1.90;78.40;;;;;;5137596;27;20023;-32
2022/02/03 01:59:28;;;;;;;62.17;24.77;;;1.80;78.30;;;;;;5137615;27;20256;-44
2022/02/03 02:02:03;;;;;;;62.28;23.13;;;1.80;78.40;;;;;;5137499;27;20076;-33
2022/02/03 02:04:50;;;;;;;50.00;23.60;;;1.70;78.40;;;;;;5136791;27;20038;-43
2022/02/03 02:07:37;;;;;;;56.65;23.02;;;1.70;78.60;;;;;;5137169;27;20080;-33
2022/02/03 02:43:42;;;;;;;42.60;17.70;;;1.50;78.90;;;;;;5137559;28;20042;-32
2022/02/03 02:46:26;;;;;;;43.92;18.02;;;1.50;78.90;;;;;;5136572;28;20435;-43
2022/02/03 02:49:14;;;;;;;37.38;18.17;;;1.50;79.00;;;;;;5137176;28;20031;-43
2022/02/03 02:51:58;;;;;;;34.63;15.38;;;1.40;79.10;;;;;;5136816;28;20023;-34
2022/02/03 03:36:42;;;;;;;43.67;17.17;;;1.10;80.80;;;;;;5140123;27;20202;-33
2022/02/03 03:39:12;;;;;;;41.35;16.92;;;1.10;81.20;;;;;;5140281;27;20104;-43
2022/02/03 03:41:44;;;;;;;48.28;18.92;;;1.10;81.10;;;;;;5139895;27;20031;-32
2022/02/03 03:44:14;;;;;;;49.78;19.88;;;1.20;81.50;;;;;;5140350;27;20430;-43
2022/02/03 03:46:45;;;;;;;60.33;21.17;;;1.20;80.90;;;;;;5139543;27;20110;-33
2022/02/03 03:49:17;;;;;;;51.90;20.02;;;1.30;81.10;;;;;;5139896;27;20031;-33
2022/02/03 03:51:46;;;;;;;45.83;19.30;;;1.30;81.50;;;;;;5139656;27;20019;-33
2022/02/03 03:54:20;;;;;;;42.25;17.75;;;1.30;80.80;;;;;;5139622;27;20027;-43
2022/02/03 03:57:02;;;;;;;41.47;18.25;;;1.40;81.00;;;;;;5139838;27;20037;-33
2022/02/03 04:00:09;;;;;;;41.38;18.73;;;1.40;80.90;;;;;;5139903;27;20084;-43
2022/02/03 05:04:16;;;;;;;30.35;12.68;;;2.00;78.70;;;;;;5129402;27;20047;-43
2022/02/03 05:07:33;;;;;;;32.53;14.07;;;2.10;78.60;;;;;;5138224;27;20072;-43
2022/02/03 06:08:51;;;;;;;42.45;19.83;;;2.20;79.00;;;;;;5137117;27;20507;-43
2022/02/03 06:14:21;;;;;;;59.88;28.15;;;2.10;78.40;;;;;;5137177;27;20037;-42
2022/02/03 06:24:51;;;;;;;50.58;20.52;;;2.20;78.70;;;;;;5136882;27;20092;-34
2022/02/03 06:27:26;;;;;;;46.83;21.90;;;2.20;78.70;;;;;;5137035;27;20353;-34
2022/02/03 06:29:56;;;;;;;48.90;20.25;;;2.20;78.70;;;;;;5136168;27;20038;-32
2022/02/03 06:32:24;;;;;;;48.03;22.65;;;2.20;78.80;;;;;;5136772;27;20024;-43
2022/02/03 06:34:50;;;;;;;48.92;20.88;;;2.20;79.00;;;;;;5135978;27;20110;-34
2022/02/03 06:37:18;;;;;;;48.13;21.25;;;2.20;79.10;;;;;;5136468;27;20024;-43
2022/02/03 06:39:44;;;;;;;49.13;20.95;;;2.30;79.30;;;;;;5136062;27;20042;-32
2022/02/03 06:42:10;;;;;;;50.53;20.58;;;2.30;78.90;;;;;;5136775;27;20057;-32
2022/02/03 06:47:11;;;;;;;40.75;19.08;;;2.40;78.70;;;;;;5136399;28;20043;-42
2022/02/03 06:52:12;;;;;;;42.58;19.10;;;2.40;78.70;;;;;;5136531;28;20050;-44
2022/02/03 06:57:19;;;;;;;39.13;19.35;;;2.50;78.60;;;;;;5136787;28;20034;-44
2022/02/03 07:02:43;;;;;;;36.78;17.17;;;2.50;78.10;;;;;;5122822;28;20036;-42
2022/02/03 07:05:08;;;;;;;41.05;18.98;;;2.60;78.00;;;;;;5135847;28;20031;-32
2022/02/03 07:07:39;;;;;;;44.60;19.27;;;2.60;77.80;;;;;;5135978;28;20049;-43
2022/02/03 07:10:06;;;;;;;40.63;19.58;;;2.60;77.90;;;;;;5139170;27;20023;-42
2022/02/03 07:12:32;;;;;;;36.88;18.17;;;2.60;78.00;;;;;;5140388;27;20042;-33
2022/02/03 07:15:00;;;;;;;41.17;19.25;;;2.60;77.80;;;;;;5139494;27;20027;-32
2022/02/03 07:17:26;;;;;;;43.85;19.92;;;2.60;77.60;;;;;;5140792;27;20034;-34
2022/02/03 07:19:54;;;;;;;39.25;18.90;;;2.60;77.50;;;;;;5139727;27;20023;-33
2022/02/03 07:22:20;;;;;;;46.65;20.20;;;2.60;77.30;;;;;;5140774;27;20438;-32
2022/02/03 07:24:46;;;;;;;49.03;22.27;;;2.50;77.30;;;;;;5139621;27;20115;-43
2022/02/03 07:27:12;;;;;;;44.78;22.05;;;2.50;77.70;;;;;;5139810;27;20160;-43
2022/02/03 07:29:37;;;;;;;42.42;20.27;;;2.50;78.10;;;;;;5139709;27;20038;-43
2022/02/03 07:32:04;;;;;;;42.00;18.52;;;2.50;78.20;;;;;;5140410;27;20031;-33
2022/02/03 07:34:29;;;;;;;41.13;17.95;;;2.60;78.00;;;;;;5139737;27;20019;-42
2022/02/03 07:36:57;;;;;;;37.65;18.63;;;2.60;78.00;;;;;;5140384;27;20039;-44
2022/02/03 07:39:23;;;;;;;48.40;21.73;;;2.60;78.00;;;;;;5139483;27;20035;-33
2022/02/03 07:41:48;;;;;;;49.35;21.75;;;2.60;78.00;;;;;;5139995;27;20138;-34
2022/02/03 07:44:16;;;;;;;47.78;20.40;;;2.70;77.90;;;;;;5139705;27;20031;-43
2022/02/03 07:46:42;;;;;;;49.40;22.10;;;2.70;77.80;;;;;;5139318;27;20405;-32
2022/02/03 07:49:07;;;;;;;50.10;23.08;;;2.70;77.90;;;;;;5139413;27;20114;-42
2022/02/03 07:51:33;;;;;;;49.33;22.05;;;2.70;78.00;;;;;;5139803;27;20019;-31
2022/02/03 07:53:59;;;;;;;56.88;24.63;;;2.80;78.10;;;;;;5139902;27;20024;-42
2022/02/03 07:56:25;;;;;;;57.67;25.98;;;2.80;78.10;;;;;;5139580;27;20528;-34
2022/02/03 07:58:50;;;;;;;52.13;25.30;;;2.90;78.20;;;;;;5140223;27;20029;-42
2022/02/03 08:01:16;;;;;;;50.78;23.55;;;2.90;77.90;;;;;;5139276;27;20034;-42
2022/02/03 08:03:44;;;;;;;46.08;22.95;;;3.00;77.80;;;;;;5121455;27;20098;-37
2022/02/03 08:06:16;;;;;;;50.33;24.80;;;3.00;77.60;;;;;;5139008;27;20423;-34
2022/02/03 08:08:47;;;;;;;47.53;23.20;;;3.00;77.50;;;;;;5139369;27;20434;-32
2022/02/03 08:11:19;;;;;;;51.22;24.08;;;3.00;77.70;;;;;;5138972;27;20056;-43
2022/02/03 08:14:03;;;;;;;47.30;23.08;;;3.00;77.50;;;;;;5139728;27;20101;-33
2022/02/03 08:16:34;;;;;;;46.80;22.38;;;3.00;77.50;;;;;;5139014;27;20027;-32
2022/02/03 08:19:12;;;;;;;46.40;23.63;;;3.10;77.20;;;;;;5139035;27;20083;-42
2022/02/03 08:21:43;;;;;;;52.22;25.77;;;3.10;77.50;;;;;;5138708;27;20023;-32
2022/02/03 08:32:06;;;;;;;41.30;20.38;;;3.10;77.20;;;;;;5138756;27;20407;-32
2022/02/03 08:37:04;;;;;;;42.45;20.58;;;3.10;77.30;;;;;;5139044;27;20403;-32
2022/02/03 08:39:36;;;;;;;52.40;24.25;;;3.20;77.20;;;;;;5138359;27;20076;-33
2022/02/03 08:42:02;;;;;;;42.55;20.80;;;3.20;77.70;;;;;;5138936;27;20034;-33
2022/02/03 08:44:27;;;;;;;39.63;20.30;;;3.20;77.00;;;;;;5138311;27;20407;-44
2022/02/03 08:46:53;;;;;;;42.53;21.23;;;3.20;77.00;;;;;;5138648;27;20031;-42
2022/02/03 08:49:22;;;;;;;44.28;21.60;;;3.30;77.30;;;;;;5138115;27;20098;-43
2022/02/03 08:51:47;;;;;;;46.80;22.52;;;3.30;77.00;;;;;;5138351;27;20045;-44
2022/02/03 08:54:14;;;;;;;48.22;23.73;;;3.30;77.00;;;;;;5138730;27;20027;-42
2022/02/03 10:00:36;;;;;;;78.20;41.80;;;4.60;75.90;;;;;;5137233;27;20121;-42
2022/02/03 10:03:09;;;;;;;67.18;35.25;;;4.70;75.90;;;;;;5137560;27;20037;-32
2022/02/03 10:05:44;;;;;;;73.00;36.97;;;4.70;76.10;;;;;;5136879;27;20122;-32
2022/02/03 10:08:18;;;;;;;74.38;41.47;;;4.70;76.00;;;;;;5136957;27;20381;-42
2022/02/03 10:10:45;;;;;;;77.88;39.53;;;4.80;75.90;;;;;;5136666;27;20024;-32
2022/02/03 10:13:22;;;;;;;61.13;34.15;;;4.80;75.90;;;;;;5137433;27;20027;-42
2022/02/03 10:16:03;;;;;;;62.55;33.92;;;4.90;75.80;;;;;;5136604;27;20034;-32
2022/02/03 10:18:30;;;;;;;76.03;34.72;;;4.90;75.70;;;;;;5137161;27;20058;-43
2022/02/03 10:20:57;;;;;;;51.35;27.60;;;5.00;75.80;;;;;;5137044;27;20031;-32
2022/02/03 10:23:25;;;;;;;53.38;29.90;;;5.00;75.60;;;;;;5137248;27;20102;-33
2022/02/03 10:25:55;;;;;;;48.97;25.67;;;5.10;75.70;;;;;;5136335;27;20155;-42
2022/02/03 10:28:24;;;;;;;44.35;24.35;;;5.10;75.50;;;;;;5137251;27;20315;-42
2022/02/03 10:31:01;;;;;;;45.47;22.77;;;5.20;75.50;;;;;;5136588;27;20438;-42
2022/02/03 10:33:38;;;;;;;34.72;19.80;;;5.20;75.50;;;;;;5136886;27;20031;-32
2022/02/03 10:36:11;;;;;;;40.47;23.05;;;5.30;75.30;;;;;;5136672;27;20019;-42
2022/02/03 10:39:05;;;;;;;39.30;19.17;;;5.30;75.20;;;;;;5137181;27;20027;-34
2022/02/03 11:05:23;;;;;;;32.45;16.50;;;5.80;73.60;;;;;;5136442;28;20126;-42
2022/02/03 11:10:30;;;;;;;27.60;16.13;;;5.80;72.90;;;;;;5136662;28;20079;-37
2022/02/03 11:12:56;;;;;;;28.98;17.20;;;5.90;72.90;;;;;;5136481;28;20114;-42
2022/02/03 11:15:25;;;;;;;32.95;17.17;;;5.90;72.90;;;;;;5135915;28;20114;-32
2022/02/03 11:17:54;;;;;;;26.50;16.83;;;6.00;72.80;;;;;;5136620;28;20118;-32
2022/02/03 11:20:23;;;;;;;29.83;16.63;;;6.00;72.70;;;;;;5141239;27;20066;-32
2022/02/03 11:48:40;;;;;;;31.75;20.23;;;6.20;71.50;;;;;;5156781;27;20538;-33
2022/02/03 11:51:42;;;;;;;30.02;17.85;;;6.20;71.20;;;;;;5155305;27;20347;-43
2022/02/03 11:56:43;;;;;;;28.83;17.23;;;6.20;71.20;;;;;;5159464;27;20034;-42
2022/02/03 12:21:59;;;;;;;28.60;16.58;;;6.00;71.50;;;;;;5159725;27;20364;-42
2022/02/03 12:24:48;;;;;;;32.42;19.33;;;6.00;71.70;;;;;;5159467;27;20046;-33
2022/02/03 12:27:37;;;;;;;30.63;18.13;;;5.90;71.80;;;;;;5159734;27;20026;-33
2022/02/03 12:30:24;;;;;;;27.27;17.15;;;5.90;71.90;;;;;;5159365;27;20031;-32
2022/02/03 12:38:36;;;;;;;31.15;19.13;;;5.70;72.30;;;;;;5160229;27;20033;-32
2022/02/03 12:41:17;;;;;;;28.80;17.92;;;5.60;72.60;;;;;;5159172;27;20062;-32
2022/02/03 12:44:02;;;;;;;29.15;18.08;;;5.60;72.80;;;;;;5159972;27;20058;-33
2022/02/03 12:46:28;;;;;;;31.83;19.30;;;5.50;73.00;;;;;;5158852;27;20376;-42
2022/02/03 12:48:59;;;;;;;32.13;18.92;;;5.50;73.10;;;;;;5159043;27;20046;-42
2022/02/03 12:51:24;;;;;;;;;;;5.40;73.30;;;;;;5159709;27;20472;-42
2022/02/03 12:53:51;;;;;;;30.25;17.25;;;5.40;73.30;;;;;;5159651;27;19997;-42
2022/02/03 12:56:23;;;;;;;28.38;17.23;;;5.40;73.60;;;;;;5158762;27;20031;-32
2022/02/03 12:59:01;;;;;;;33.63;19.27;;;5.30;73.80;;;;;;5141002;27;20050;-32
2022/02/03 13:01:31;;;;;;;33.10;18.88;;;5.30;74.00;;;;;;5158623;27;20070;-44
2022/02/03 13:03:57;;;;;;;39.05;20.15;;;5.20;74.10;;;;;;5157838;27;20076;-42
2022/02/03 13:06:27;;;;;;;33.50;19.25;;;5.20;74.40;;;;;;5146293;27;20322;-42
2022/02/03 13:08:56;;;;;;;34.17;19.10;;;5.20;74.60;;;;;;5158524;27;20050;-32
2022/02/03 13:11:33;;;;;;;32.05;18.50;;;5.20;74.80;;;;;;5158448;27;20018;-42
2022/02/03 13:17:00;;;;;;;33.50;19.60;;;5.10;75.00;;;;;;5158700;27;20083;-32
2022/02/03 13:25:04;;;;;;;31.23;17.48;;;5.00;75.50;;;;;;5158692;27;20087;-43
2022/02/03 13:27:45;;;;;;;29.77;18.73;;;4.90;75.60;;;;;;5158882;27;20299;-32
2022/02/03 13:30:34;;;;;;;36.95;19.50;;;4.90;75.80;;;;;;5158263;27;20304;-32
2022/02/03 13:33:03;;;;;;;32.83;18.70;;;4.90;76.10;;;;;;5158652;27;20161;-32
2022/02/03 13:35:43;;;;;;;30.05;17.70;;;4.80;76.20;;;;;;5158040;27;20101;-43
2022/02/03 13:38:21;;;;;;;30.23;17.05;;;4.80;76.30;;;;;;5158282;27;20403;-43
2022/02/03 13:40:47;;;;;;;29.75;17.40;;;4.80;76.40;;;;;;5158128;27;20047;-42
2022/02/03 13:43:14;;;;;;;30.35;17.05;;;4.80;76.50;;;;;;5158246;27;20451;-43
2022/02/03 13:45:41;;;;;;;30.35;18.23;;;4.80;76.50;;;;;;5157707;27;20033;-32
2022/02/03 13:48:21;;;;;;;34.00;17.73;;;4.70;76.40;;;;;;5158283;27;20360;-44
2022/02/03 13:50:53;;;;;;;27.33;16.60;;;4.70;77.20;;;;;;5157885;27;20079;-32
2022/02/03 13:53:26;;;;;;;32.05;17.88;;;4.70;76.80;;;;;;5158117;27;20037;-33
2022/02/03 14:13:29;;;;;;;21.55;13.75;;;4.40;75.90;;;;;;5157727;27;20070;-32
2022/02/03 14:18:24;;;;;;;22.52;14.20;;;4.30;75.70;;;;;;5157840;27;20090;-42
2022/02/03 14:21:07;;;;;;;20.20;12.70;;;4.30;75.50;;;;;;5157159;27;20375;-44
2022/02/03 14:29:11;;;;;;;72.20;36.17;;;4.20;74.70;;;;;;5157067;27;20034;-35
2022/02/03 14:31:38;;;;;;;28.83;19.10;;;4.10;74.40;;;;;;5157204;27;20022;-34
2022/02/03 14:34:09;;;;;;;22.58;14.57;;;4.10;74.50;;;;;;5157351;27;20099;-42
2022/02/03 14:36:35;;;;;;;;;;;4.10;74.50;;;;;;5156884;27;20418;-41
2022/02/03 14:39:23;;;;;;;25.63;14.73;;;4.00;74.40;;;;;;5157321;27;19918;-42
2022/02/03 14:41:48;;;;;;;22.70;14.23;;;4.00;74.40;;;;;;5156350;27;20046;-33
2022/02/03 14:44:17;;;;;;;24.38;15.63;;;3.90;74.40;;;;;;5156502;27;20486;-32
2022/02/03 14:46:43;;;;;;;25.70;15.93;;;3.90;74.30;;;;;;5157242;27;20054;-44
2022/02/03 14:49:10;;;;;;;33.20;18.95;;;3.90;74.20;;;;;;5157246;27;20037;-43
2022/02/03 14:51:56;;;;;;;27.20;16.95;;;3.90;74.20;;;;;;5157144;27;20067;-42
2022/02/03 14:59:34;;;;;;;26.73;16.00;;;3.70;73.60;;;;;;5156761;27;20081;-32
2022/02/03 15:02:06;;;;;;;27.23;15.50;;;3.70;74.30;;;;;;5157247;27;20410;-33
2022/02/03 15:04:33;;;;;;;27.23;16.02;;;3.70;73.70;;;;;;5156433;27;20415;-42
2022/02/03 15:07:02;;;;;;;25.75;15.93;;;3.70;73.70;;;;;;5157001;27;20143;-42
2022/02/03 15:15:00;;;;;;;25.73;16.98;;;3.70;73.80;;;;;;5142471;27;20031;-43
2022/02/03 15:17:35;;;;;;;29.40;17.52;;;3.70;73.80;;;;;;5156751;27;20414;-42
2022/02/03 15:20:01;;;;;;;32.13;19.50;;;3.70;74.00;;;;;;5156727;27;20038;-43
2022/02/03 15:22:27;;;;;;;34.63;21.75;;;3.70;73.90;;;;;;5156932;27;20033;-33
2022/02/03 15:24:53;;;;;;;29.23;18.60;;;3.70;73.90;;;;;;5156343;27;20037;-32
2022/02/03 15:27:19;;;;;;;31.88;17.30;;;3.80;73.90;;;;;;5156791;27;20023;-33
2022/02/03 15:29:49;;;;;;;43.72;20.63;;;3.80;73.60;;;;;;5156863;27;20451;-38
2022/02/03 15:32:16;;;;;;;25.25;14.73;;;3.70;72.90;;;;;;5160740;27;20046;-43
2022/02/03 15:34:42;;;;;;;25.60;15.02;;;3.70;72.80;;;;;;5160375;27;20031;-42
2022/02/03 15:37:15;;;;;;;24.58;14.35;;;3.60;72.40;;;;;;5160523;27;20426;-42
2022/02/03 15:39:49;;;;;;;21.20;12.75;;;3.60;72.50;;;;;;5160330;27;20062;-42
2022/02/03 15:42:20;;;;;;;42.47;19.63;;;3.60;72.20;;;;;;5157924;27;20072;-42
2022/02/03 15:44:50;;;;;;;26.42;14.38;;;3.50;72.10;;;;;;5139432;27;20043;-43
2022/02/03 15:47:26;;;;;;;24.63;14.98;;;3.50;72.30;;;;;;5139578;27;20039;-35
2022/02/03 16:03:50;;;;;;;21.50;12.00;;;3.50;71.50;;;;;;5112378;28;20042;-32
2022/02/03 16:17:05;;;;;;;54.08;22.40;;;3.30;70.90;;;;;;5160065;27;20099;-42
2022/02/03 16:25:10;;;;;;;20.80;12.13;;;3.20;70.70;;;;;;5143213;27;20038;-32
2022/02/03 16:52:26;;;;;;;24.05;12.82;;;3.00;71.10;;;;;;5159693;27;20025;-43
2022/02/03 16:54:53;;;;;;;23.90;12.75;;;3.00;71.00;;;;;;5159259;27;20058;-32
2022/02/03 16:57:23;;;;;;;19.83;12.00;;;3.00;71.00;;;;;;5159192;27;20046;-42
2022/02/03 16:59:56;;;;;;;33.22;12.57;;;3.00;70.90;;;;;;5158919;27;20042;-42
2022/02/03 17:02:24;;;;;;;19.00;11.40;;;3.00;70.70;;;;;;5159262;27;20396;-42
2022/02/03 17:04:51;;;;;;;18.60;10.73;;;2.90;70.70;;;;;;5158828;27;20065;-32
2022/02/03 17:07:17;;;;;;;21.85;12.02;;;2.90;70.60;;;;;;5159135;27;20038;-42
2022/02/03 17:09:43;;;;;;;19.05;11.32;;;2.90;70.60;;;;;;5158999;27;20076;-43
2022/02/03 17:12:09;;;;;;;21.00;11.52;;;2.90;70.60;;;;;;5159153;27;20031;-42
2022/02/03 17:14:34;;;;;;;21.80;12.63;;;2.80;70.50;;;;;;5158575;27;20022;-31
2022/02/03 17:17:01;;;;;;;20.33;11.50;;;2.80;70.50;;;;;;5158014;27;20109;-42
2022/02/03 17:19:26;;;;;;;19.02;11.00;;;2.80;70.50;;;;;;5158305;27;20045;-43
2022/02/03 17:21:52;;;;;;;20.73;12.10;;;2.80;70.60;;;;;;5158892;27;20034;-36
2022/02/03 17:24:18;;;;;;;21.48;12.65;;;2.80;70.60;;;;;;5158625;27;20027;-33
2022/02/03 17:26:57;;;;;;;20.58;12.00;;;2.80;70.50;;;;;;5158812;27;20023;-34
2022/02/03 17:29:35;;;;;;;25.55;15.13;;;2.70;70.60;;;;;;5158540;27;20027;-34
2022/02/03 18:18:28;;;;;;;24.05;14.50;;;2.20;69.50;;;;;;5158232;27;20048;-42
2022/02/03 18:31:09;;;;;;;18.67;10.45;;;2.00;69.00;;;;;;5157869;27;20393;-43
2022/02/03 18:50:18;;;;;;;22.67;12.25;;;1.90;68.70;;;;;;5157152;27;20441;-44
2022/02/03 19:20:50;;;;;;;20.98;11.68;;;2.10;68.00;;;;;;5161470;27;20023;-32
2022/02/03 20:12:04;;;;;;;16.73;9.85;;;1.90;68.10;;;;;;5159574;27;20314;-33
2022/02/03 20:14:30;;;;;;;19.88;10.32;;;1.90;67.70;;;;;;5158695;27;20034;-32
2022/02/03 20:16:56;;;;;;;21.33;10.30;;;1.80;67.60;;;;;;5158973;27;20403;-32
2022/02/03 20:19:21;;;;;;;14.93;9.32;;;1.80;67.70;;;;;;5158848;27;20027;-34
2022/02/03 20:21:47;;;;;;;23.42;12.68;;;1.80;68.20;;;;;;5158762;27;20038;-32
2022/02/03 20:24:14;;;;;;;22.15;12.65;;;1.80;67.40;;;;;;5159053;27;20064;-32
2022/02/03 20:26:42;;;;;;;15.52;9.27;;;1.80;67.00;;;;;;5158781;27;20140;-34
2022/02/03 20:29:07;;;;;;;16.88;8.88;;;1.70;66.80;;;;;;5158945;27;20326;-33
2022/02/03 20:31:33;;;;;;;22.23;11.70;;;1.70;67.00;;;;;;5158509;27;20060;-35
2022/02/03 20:33:59;;;;;;;15.68;9.20;;;1.70;67.10;;;;;;5158942;27;20026;-34
2022/02/03 20:36:25;;;;;;;19.33;10.88;;;1.60;66.90;;;;;;5158854;27;20048;-43
2022/02/03 20:38:51;;;;;;;22.60;10.82;;;1.60;67.00;;;;;;5159283;27;20138;-43
2022/02/03 20:41:21;;;;;;;16.30;9.15;;;1.60;67.00;;;;;;5158609;27;20030;-32
2022/02/03 20:43:46;;;;;;;17.65;9.07;;;1.60;66.60;;;;;;5159104;27;20406;-42
2022/02/03 20:46:13;;;;;;;16.10;9.38;;;1.60;66.30;;;;;;5158181;27;20038;-43
2022/02/03 20:48:45;;;;;;;16.33;8.85;;;1.60;66.40;;;;;;5158857;27;20041;-42
2022/02/03 20:51:15;;;;;;;17.10;8.95;;;1.50;65.80;;;;;;5158099;27;20023;-44
2022/02/03 20:53:42;;;;;;;14.10;7.65;;;1.50;65.60;;;;;;5159061;27;20310;-42
2022/02/03 20:56:09;;;;;;;13.80;8.18;;;1.50;65.70;;;;;;5158412;27;20035;-33
2022/02/03 20:58:34;;;;;;;12.73;8.30;;;1.50;65.90;;;;;;5158749;27;20042;-42
2022/02/03 21:01:08;;;;;;;14.55;7.70;;;1.50;66.10;;;;;;5158498;27;20322;-32
2022/02/03 21:03:39;;;;;;;20.50;11.27;;;1.50;65.50;;;;;;5158863;27;20322;-32
2022/02/03 21:06:05;;;;;;;;;;;1.50;65.30;;;;;;5158684;27;20035;-42
2022/02/03 21:08:33;;;;;;;17.45;10.30;;;1.40;65.20;;;;;;5118856;27;1113575;-43
2022/02/03 21:11:00;;;;;;;13.48;7.65;;;1.40;65.00;;;;;;5159181;27;20418;-43
2022/02/03 21:13:26;;;;;;;14.32;8.32;;;1.40;65.10;;;;;;5159502;27;20415;-37
2022/02/03 21:15:53;;;;;;;16.85;8.95;;;1.40;65.20;;;;;;5158848;27;20111;-44
2022/02/03 21:18:20;;;;;;;18.10;9.65;;;1.40;65.00;;;;;;5159517;27;20026;-42
2022/02/03 21:20:50;;;;;;;19.05;10.70;;;1.30;64.60;;;;;;5158923;27;20088;-33
2022/02/03 21:23:16;;;;;;;16.85;9.48;;;1.30;64.60;;;;;;5159417;27;20031;-32
2022/02/03 21:25:46;;;;;;;13.32;7.95;;;1.30;64.60;;;;;;5158926;27;20252;-32
2022/02/03 21:28:23;;;;;;;13.05;8.35;;;1.30;64.40;;;;;;5158320;27;20434;-32
2022/02/03 21:30:50;;;;;;;21.23;11.00;;;1.30;64.70;;;;;;5158592;27;20037;-32
2022/02/03 21:33:23;;;;;;;22.40;11.45;;;1.30;64.50;;;;;;5159160;27;20019;-33
2022/02/03 21:35:49;;;;;;;22.58;10.98;;;1.30;64.50;;;;;;5158782;27;20035;-42
2022/02/03 21:38:16;;;;;;;23.10;12.35;;;1.30;64.60;;;;;;5159185;27;20022;-32
2022/02/03 21:40:42;;;;;;;19.88;10.20;;;1.30;64.70;;;;;;5158201;27;20065;-32
2022/02/03 21:43:08;;;;;;;17.98;10.07;;;1.30;64.70;;;;;;5158895;27;20055;-36
2022/02/03 21:45:34;;;;;;;21.83;11.90;;;1.30;64.40;;;;;;5158313;27;20035;-34
2022/02/03 21:48:00;;;;;;;16.58;8.32;;;1.30;64.50;;;;;;5158688;27;20019;-42
2022/02/03 21:50:31;;;;;;;15.32;9.05;;;1.30;64.10;;;;;;5158171;27;20083;-32
2022/02/03 21:52:57;;;;;;;21.58;11.30;;;1.20;63.80;;;;;;5158374;27;20023;-42
2022/02/03 21:55:24;;;;;;;17.60;9.90;;;1.20;64.00;;;;;;5158203;27;20038;-32
2022/02/03 21:57:54;;;;;;;16.38;9.07;;;1.20;64.10;;;;;;5158499;27;20027;-42
2022/02/03 22:00:21;;;;;;;14.32;8.13;;;1.10;64.00;;;;;;5158213;27;20057;-32
2022/02/03 22:02:47;;;;;;;19.80;8.48;;;1.10;64.00;;;;;;5158361;27;20121;-42
2022/02/03 22:05:13;;;;;;;18.77;9.32;;;1.10;63.90;;;;;;5157803;27;20055;-43
2022/02/03 22:07:41;;;;;;;22.55;10.98;;;1.10;63.90;;;;;;5158077;27;20054;-32
2022/02/03 22:10:09;;;;;;;18.98;9.52;;;1.10;63.60;;;;;;5157755;27;20080;-33
2022/02/03 22:12:35;;;;;;;17.00;9.13;;;1.00;63.80;;;;;;5158563;27;20304;-44
2022/02/03 22:15:01;;;;;;;17.83;9.05;;;0.90;63.90;;;;;;5158096;27;20425;-42
2022/02/03 22:17:26;;;;;;;14.98;8.25;;;0.90;64.00;;;;;;5157831;27;20426;-42
2022/02/03 22:19:54;;;;;;;19.08;9.63;;;0.90;63.90;;;;;;5157818;27;20161;-32
2022/02/03 22:25:14;;;;;;;16.23;8.82;;;0.90;63.60;;;;;;5157813;27;20108;-42
2022/02/03 22:44:03;;;;;;;29.40;15.88;;;0.80;63.50;;;;;;5093796;28;20039;-32
2022/02/03 22:49:09;;;;;;;24.98;11.50;;;0.70;63.60;;;;;;5157360;27;20327;-33
2022/02/03 22:51:36;;;;;;;14.60;7.15;;;0.70;63.80;;;;;;5157500;27;20027;-32
2022/02/03 22:54:04;;;;;;;16.15;7.80;;;0.70;63.80;;;;;;5157517;27;20034;-43
2022/02/03 22:56:30;;;;;;;12.80;6.60;;;0.70;63.80;;;;;;5157308;27;20022;-32
2022/02/03 23:01:32;;;;;;;12.38;7.18;;;0.70;63.70;;;;;;5157598;27;20030;-42
2022/02/03 23:03:58;;;;;;;21.88;10.30;;;0.70;64.00;;;;;;5157766;27;20062;-33
2022/02/03 23:06:23;;;;;;;11.15;6.45;;;0.70;63.80;;;;;;5157475;27;20061;-36
2022/02/03 23:14:23;;;;;;;16.98;7.55;;;0.60;63.50;;;;;;5157567;27;20045;-42
2022/02/03 23:19:41;;;;;;;14.60;7.90;;;0.50;63.90;;;;;;5157345;27;20099;-32
2022/02/03 23:22:12;;;;;;;22.70;10.20;;;0.50;64.00;;;;;;5157644;27;20027;-31
2022/02/03 23:24:39;;;;;;;;;;;0.50;64.00;;;;;;5157688;27;20349;-32
2022/02/03 23:29:51;;;;;;;17.10;7.22;;;0.50;64.30;;;;;;5157023;27;20372;-35
2022/02/03 23:32:17;;;;;;;13.60;7.03;;;0.40;64.00;;;;;;5157402;27;20027;-43
2022/02/03 23:34:47;;;;;;;17.13;9.23;;;0.40;64.00;;;;;;5156811;27;20084;-35
2022/02/03 23:37:13;;;;;;;14.05;6.60;;;0.40;64.00;;;;;;5157574;27;20038;-42
2022/02/03 23:47:47;;;;;;;14.57;6.45;;;0.40;64.10;;;;;;5157307;27;20026;-32
